Terminal Aerodrome Forecast
Issued by NWS

Home | Current Version | Previous Version | Text Only | Print | Product List | Glossary On
Versions: 1 2 3 4 5 6 7 8 9 10 11 12 13 14 15 16
268
FTUS43 KGRB 200520
TAFMTW
TAF
KMTW 200520Z 2006/2106 28007KT P6SM BKN070
     FM201500 28010G15KT P6SM -SHRA SCT040 BKN080
     FM201900 28009G14KT P6SM BKN060
     FM210000 30004KT P6SM SCT060=

USA.gov is the U.S. government's official web portal to all federal, state and local government web resources and services.